Aérodrome :
LOGIN :

S'inscrire | Disclaimer

   EN    FR    IT 

 










Légende :    VFR   VFR Marginal   IFR   IFR Intensif   IFR Très Intensif
Visi : 
Plafond : 
>= 8 km
>= 3000ft
5 à 8 km
1000 à 3000 ft
1500m à 5 km
500 à 1000 ft
800 à 1500m
200 à 500 ft
< 800m
< 200 ft
Symboles :   Orages  Brouillard  Fortes neiges  Fortes précipitations  Vent > 20 kt
SIGMETs :   Divers  Orages  Givrage  Turbulence  Onde Orograph.  Cendres Volcan.







- Altitude de l'aérodrome : 18 ft
- Code IATA : AJA
- Voir les cartes d'approche


LFKJ - Ajaccio

DERNIER METAR :
  • 280800Z 27013KT 9999 FEW040 BKN150 14/04 Q1013 NOSIG

METARs EXPIRÉS :
  • 280730Z 29012KT 9999 FEW040 BKN150 13/05 Q1012 NOSIG
  • 280700Z 29011KT 260V320 9999 FEW040 BKN150 14/05 Q1012 NOSIG
  • 280630Z 29012KT 260V320 9999 SCT036 BKN150 13/05 Q1012 NOSIG
  • 280600Z 28011KT 9999 FEW040 BKN150 13/05 Q1012 NOSIG
  • 280530Z 29008KT 270V340 9999 FEW040 BKN150 12/05 Q1012 NOSIG

TAF TAF LFKJ
Valide du 28 à 03h jusqu'au 29 à 03h UTC


280200Z 2803/2903 VRB03KT 9999 FEW033 BKN080
BECMG 2806/2808 26012KT NSC
TEMPO 2808/2815 26015G25KT
ATIS : +33 4 95 23 59 85
Pas de NOTAMs connus pour ce terrain.
2 SIGMETs publiés pour la FIR Marseille (LFMM) :
 
Turbulence forte
LFMM SIGMET 4 VALID 280700/281100 LFPW
LFMM MARSEILLE FIR/UIR SEV TURB FCST WI N4300 E00945 - N4115 E00945 - N4115 E00600 - N4430 E00300 - N4445 E00500 - N4345 E00700 SFC/FL060 STNR NC=
Onde orographique forte
LFMM SIGMET 3 VALID 280700/281100 LFPW
LFMM MARSEILLE FIR/UIR SEV MTW FCST WI N4315 E00930 - N4315 E00945 - N4115 E00945 - N4115 E00845 - N4230 E00815 FL060/260 STNR NC=



MET'MAP, la Météo Aéronautique d'un coup d'oeil ! - Copyright ORBIFLY Décembre 2007 - Disclaimer

ORBIFLY MET'MAP TEAM :

Programmation & Développement : Alexandra Zaïnal
Conception & Développement : Baudouin d'Aumeries
Co-Programmation & Développement : Marc-Olivier Méhu
Soutien technique & logistique : Manuel Goepfert

Contact : metmap@orbifly.com




SOURCES & CREDITS :

   NOAA